createdAt,value
2017-09-18T00:00:05.480Z,0
2017-09-18T00:01:06.134Z,0
2017-09-18T00:03:22.283Z,0
2017-09-18T00:04:23.182Z,0
2017-09-18T00:05:23.833Z,0
2017-09-18T00:06:24.483Z,0
2017-09-18T00:07:25.134Z,0
2017-09-18T00:08:25.786Z,0
2017-09-18T00:09:26.738Z,0
2017-09-18T00:10:27.389Z,0
2017-09-18T00:11:28.040Z,0
2017-09-18T00:12:28.690Z,0
2017-09-18T00:13:29.340Z,0
2017-09-18T00:14:30.276Z,0
2017-09-18T00:15:30.927Z,0
2017-09-18T00:16:31.580Z,0
2017-09-18T00:17:32.266Z,0
2017-09-18T00:18:32.922Z,0
2017-09-18T00:19:33.868Z,0
2017-09-18T00:20:34.518Z,0
2017-09-18T00:21:35.169Z,0
2017-09-18T00:22:35.855Z,0
2017-09-18T00:23:36.507Z,0
2017-09-18T00:24:37.461Z,0
2017-09-18T00:25:38.109Z,0
2017-09-18T00:26:38.760Z,0
2017-09-18T00:27:39.410Z,0
2017-09-18T00:28:40.062Z,0
2017-09-18T00:29:41.013Z,0
2017-09-18T00:30:41.670Z,0
2017-09-18T00:31:42.315Z,0
2017-09-18T00:32:42.965Z,0
2017-09-18T00:33:43.617Z,0
2017-09-18T00:34:44.520Z,0
2017-09-18T00:35:45.168Z,0
2017-09-18T00:36:45.818Z,0
2017-09-18T00:37:46.470Z,0
2017-09-18T00:38:47.125Z,0
2017-09-18T00:39:48.028Z,0
2017-09-18T00:40:48.674Z,0
2017-09-18T00:41:49.329Z,0
2017-09-18T00:42:49.976Z,0
2017-09-18T00:43:50.628Z,0
2017-09-18T00:44:51.528Z,0
2017-09-18T00:45:52.178Z,0
2017-09-18T00:46:52.829Z,0
2017-09-18T00:47:53.482Z,0
2017-09-18T00:48:54.129Z,0
2017-09-18T00:49:55.030Z,0
2017-09-18T00:50:55.681Z,0
2017-09-18T00:51:56.334Z,0
2017-09-18T00:52:56.986Z,0
2017-09-18T00:53:57.636Z,0
2017-09-18T00:54:58.539Z,0
2017-09-18T00:55:59.188Z,0
2017-09-18T00:56:59.848Z,0
2017-09-18T00:58:00.497Z,0
2017-09-18T00:59:01.150Z,0
2017-09-18T01:00:02.102Z,0
2017-09-18T01:01:02.753Z,0
2017-09-18T01:02:03.407Z,0
2017-09-18T01:03:04.058Z,0
2017-09-18T01:04:04.711Z,0
2017-09-18T01:05:05.611Z,0
2017-09-18T01:06:06.261Z,0
2017-09-18T01:07:06.913Z,0
2017-09-18T01:08:07.566Z,0
2017-09-18T01:09:08.217Z,0
2017-09-18T01:10:09.120Z,0
2017-09-18T01:11:09.773Z,0
2017-09-18T01:12:10.423Z,0
2017-09-18T01:13:11.075Z,0
2017-09-18T01:14:11.731Z,0
2017-09-18T01:15:12.712Z,0
2017-09-18T01:16:13.362Z,0
2017-09-18T01:17:14.016Z,0
2017-09-18T01:18:14.666Z,0
2017-09-18T01:19:15.317Z,0
2017-09-18T01:20:16.221Z,0
2017-09-18T01:21:16.873Z,0
2017-09-18T01:22:17.526Z,0
2017-09-18T01:23:18.178Z,0
2017-09-18T01:24:18.833Z,0
2017-09-18T01:25:19.732Z,0
2017-09-18T01:26:20.384Z,0
2017-09-18T01:27:21.034Z,0
2017-09-18T01:28:21.686Z,0
2017-09-18T01:29:22.338Z,0
2017-09-18T01:30:23.238Z,0
2017-09-18T01:31:23.892Z,0
2017-09-18T01:32:24.542Z,0
2017-09-18T01:33:25.194Z,0
2017-09-18T01:34:25.848Z,0
2017-09-18T01:35:26.800Z,0
2017-09-18T01:36:27.487Z,0
2017-09-18T01:37:28.137Z,0
2017-09-18T01:38:28.789Z,0
2017-09-18T01:39:29.441Z,0
2017-09-18T01:40:30.342Z,0
2017-09-18T01:41:30.997Z,0
2017-09-18T01:42:31.652Z,0
2017-09-18T01:43:32.297Z,0
2017-09-18T01:44:32.951Z,0
2017-09-18T01:45:33.852Z,0
2017-09-18T01:46:34.502Z,0
2017-09-18T01:47:35.157Z,0
2017-09-18T01:48:35.807Z,0
2017-09-18T01:49:36.458Z,0
2017-09-18T01:50:37.361Z,0
2017-09-18T01:51:38.015Z,0
2017-09-18T01:52:38.701Z,0
2017-09-18T01:53:39.354Z,0
2017-09-18T01:54:40.005Z,0
2017-09-18T01:55:40.907Z,0
2017-09-18T01:56:41.559Z,0
2017-09-18T01:57:42.210Z,0
2017-09-18T01:58:42.866Z,0
2017-09-18T01:59:43.515Z,0
2017-09-18T02:00:44.465Z,0
2017-09-18T02:01:45.116Z,0
2017-09-18T02:02:45.767Z,0
2017-09-18T02:03:46.418Z,0
2017-09-18T02:04:47.074Z,0
2017-09-18T02:05:47.972Z,0
2017-09-18T02:06:48.626Z,0
2017-09-18T02:07:49.311Z,0
2017-09-18T02:08:49.961Z,0
2017-09-18T02:09:50.613Z,0
2017-09-18T02:10:51.603Z,0
2017-09-18T02:11:52.252Z,0
2017-09-18T02:12:52.903Z,0
2017-09-18T02:13:53.555Z,0
2017-09-18T02:14:54.208Z,0
2017-09-18T02:15:55.160Z,0
2017-09-18T02:16:55.810Z,0
2017-09-18T02:17:56.462Z,0
2017-09-18T02:18:57.113Z,0
2017-09-18T02:19:57.764Z,0
2017-09-18T02:20:58.667Z,0
2017-09-18T02:21:59.324Z,0
2017-09-18T02:22:59.968Z,0
2017-09-18T02:24:00.620Z,0
2017-09-18T02:25:01.271Z,0
2017-09-18T02:26:02.172Z,0
2017-09-18T02:27:02.825Z,0
2017-09-18T02:28:03.475Z,0
2017-09-18T02:29:04.126Z,0
2017-09-18T02:30:04.785Z,0
2017-09-18T02:31:05.687Z,0
2017-09-18T02:32:06.338Z,0
2017-09-18T02:33:06.995Z,0
2017-09-18T02:34:07.642Z,0
2017-09-18T02:35:08.302Z,0
2017-09-18T02:36:09.246Z,0
2017-09-18T02:37:09.896Z,0
2017-09-18T02:38:10.548Z,0
2017-09-18T02:39:11.198Z,0
2017-09-18T02:40:11.852Z,0
2017-09-18T02:41:12.752Z,0
2017-09-18T02:42:13.404Z,0
2017-09-18T02:43:14.055Z,0
2017-09-18T02:44:14.707Z,0
2017-09-18T02:45:15.360Z,0
2017-09-18T02:46:16.261Z,0
2017-09-18T02:47:16.914Z,0
2017-09-18T02:48:17.565Z,0
2017-09-18T02:49:18.253Z,0
2017-09-18T02:50:18.904Z,0
2017-09-18T02:51:19.857Z,0
2017-09-18T02:52:20.510Z,0
2017-09-18T02:53:21.164Z,0
2017-09-18T02:54:21.817Z,0
2017-09-18T02:55:22.470Z,0
2017-09-18T02:56:23.371Z,0
2017-09-18T02:57:24.023Z,0
2017-09-18T02:58:24.676Z,0
2017-09-18T02:59:25.337Z,0
2017-09-18T03:00:25.986Z,0
2017-09-18T03:01:26.888Z,0
2017-09-18T03:02:27.542Z,0
2017-09-18T03:03:28.195Z,0
2017-09-18T03:04:28.847Z,0
2017-09-18T03:05:29.499Z,0
2017-09-18T03:06:30.401Z,0
2017-09-18T03:07:31.054Z,0
2017-09-18T03:08:31.708Z,0
2017-09-18T03:09:32.395Z,0
2017-09-18T03:10:33.047Z,0
2017-09-18T03:11:33.950Z,0
2017-09-18T03:12:34.602Z,0
2017-09-18T03:13:35.253Z,0
2017-09-18T03:14:35.906Z,0
2017-09-18T03:15:36.557Z,0
2017-09-18T03:16:37.510Z,0
2017-09-18T03:17:38.163Z,0
2017-09-18T03:18:38.849Z,0
2017-09-18T03:19:39.502Z,0
2017-09-18T03:20:40.153Z,0
2017-09-18T03:21:41.057Z,0
2017-09-18T03:22:41.709Z,0
2017-09-18T03:23:42.360Z,0
2017-09-18T03:24:43.015Z,0
2017-09-18T03:25:43.666Z,0
2017-09-18T03:26:44.618Z,0
2017-09-18T03:27:45.270Z,0
2017-09-18T03:28:45.931Z,0
2017-09-18T03:29:46.607Z,0
2017-09-18T03:30:47.262Z,0
2017-09-18T03:31:48.162Z,0
2017-09-18T03:32:48.815Z,0
2017-09-18T03:33:49.467Z,0
2017-09-18T03:34:50.119Z,0
2017-09-18T03:35:50.803Z,0
2017-09-18T03:36:51.707Z,0
2017-09-18T03:37:52.360Z,0
2017-09-18T03:38:53.009Z,0
2017-09-18T03:39:53.661Z,0
2017-09-18T03:40:54.312Z,0
2017-09-18T03:41:55.215Z,0
2017-09-18T03:42:55.868Z,0
2017-09-18T03:43:56.519Z,0
2017-09-18T03:44:57.174Z,0
2017-09-18T03:45:57.859Z,0
2017-09-18T03:46:58.762Z,0
2017-09-18T03:47:59.413Z,0
2017-09-18T03:49:00.066Z,0
2017-09-18T03:50:00.717Z,0
2017-09-18T03:51:01.368Z,0
2017-09-18T03:52:02.271Z,0
2017-09-18T03:53:02.922Z,0
2017-09-18T03:54:03.575Z,0
2017-09-18T03:55:04.226Z,0
2017-09-18T03:56:04.880Z,0
2017-09-18T03:57:05.831Z,0
2017-09-18T03:58:06.482Z,0
2017-09-18T03:59:07.135Z,0
2017-09-18T04:00:07.785Z,0
2017-09-18T04:01:08.438Z,0
2017-09-18T04:02:09.341Z,0
2017-09-18T04:03:09.991Z,0
2017-09-18T04:04:10.677Z,0
2017-09-18T04:05:11.330Z,0
2017-09-18T04:06:11.981Z,0
2017-09-18T04:07:12.883Z,0
2017-09-18T04:08:13.536Z,0
2017-09-18T04:09:14.187Z,0
2017-09-18T04:10:14.841Z,0
2017-09-18T04:11:15.493Z,0
2017-09-18T04:12:16.394Z,0
2017-09-18T04:13:17.046Z,0
2017-09-18T04:14:17.698Z,0
2017-09-18T04:15:18.350Z,0
2017-09-18T04:16:19.001Z,0
2017-09-18T04:17:19.903Z,0
2017-09-18T04:18:20.556Z,0
2017-09-18T04:19:21.208Z,0
2017-09-18T04:20:21.858Z,0
2017-09-18T04:21:22.512Z,0
2017-09-18T04:22:23.413Z,0
2017-09-18T04:23:24.066Z,0
2017-09-18T04:24:24.720Z,0
2017-09-18T04:25:25.372Z,4
2017-09-18T04:26:26.025Z,4
2017-09-18T04:27:26.928Z,0
2017-09-18T04:28:27.578Z,4
2017-09-18T04:29:28.231Z,4
2017-09-18T04:30:28.882Z,4
2017-09-18T04:31:29.534Z,4
2017-09-18T04:32:30.434Z,8
2017-09-18T04:33:31.087Z,12
2017-09-18T04:34:31.741Z,12
2017-09-18T04:35:32.392Z,12
2017-09-18T04:36:33.046Z,16
2017-09-18T04:37:33.951Z,20
2017-09-18T04:38:34.604Z,20
2017-09-18T04:39:35.257Z,28
2017-09-18T04:40:35.911Z,32
2017-09-18T04:41:36.563Z,36
2017-09-18T04:42:37.466Z,44
2017-09-18T04:43:38.122Z,52
2017-09-18T04:44:38.771Z,60
2017-09-18T04:45:39.430Z,72
2017-09-18T04:46:40.084Z,84
2017-09-18T04:47:41.037Z,96
2017-09-18T04:48:41.689Z,112
2017-09-18T04:49:42.344Z,124
2017-09-18T04:50:42.996Z,144
2017-09-18T04:51:43.657Z,160
2017-09-18T04:52:44.611Z,180
2017-09-18T04:53:45.265Z,200
2017-09-18T04:54:45.920Z,224
2017-09-18T04:55:46.573Z,252
2017-09-18T04:56:47.226Z,276
2017-09-18T04:57:48.130Z,304
2017-09-18T04:58:48.784Z,336
2017-09-18T04:59:49.437Z,364
2017-09-18T05:00:50.092Z,396
2017-09-18T05:01:50.750Z,432
2017-09-18T05:02:51.651Z,468
2017-09-18T05:03:52.304Z,504
2017-09-18T05:04:52.956Z,544
2017-09-18T05:05:53.613Z,584
2017-09-18T05:06:54.269Z,624
2017-09-18T05:07:55.174Z,668
2017-09-18T05:08:55.828Z,712
2017-09-18T05:09:56.483Z,760
2017-09-18T05:10:57.138Z,804
2017-09-18T05:11:57.793Z,852
2017-09-18T05:12:58.748Z,904
2017-09-18T05:13:59.409Z,964
2017-09-18T05:15:00.059Z,1020
2017-09-18T05:16:00.717Z,1076
2017-09-18T05:17:01.372Z,1128
2017-09-18T05:18:02.276Z,1184
2017-09-18T05:19:02.930Z,1240
2017-09-18T05:20:03.594Z,1296
2017-09-18T05:21:04.249Z,1348
2017-09-18T05:22:04.903Z,1400
2017-09-18T05:23:05.862Z,1452
2017-09-18T05:24:06.514Z,1508
2017-09-18T05:25:07.169Z,1564
2017-09-18T05:26:07.826Z,1616
2017-09-18T05:27:08.517Z,1668
2017-09-18T05:28:09.473Z,1708
2017-09-18T05:29:10.129Z,1760
2017-09-18T05:30:10.783Z,1832
2017-09-18T05:31:11.440Z,1908
2017-09-18T05:32:12.095Z,1968
2017-09-18T05:33:13.050Z,2000
2017-09-18T05:34:13.707Z,2060
2017-09-18T05:35:14.363Z,2108
2017-09-18T05:36:15.056Z,2148
2017-09-18T05:37:15.720Z,2192
2017-09-18T05:38:16.626Z,2224
2017-09-18T05:39:17.282Z,2264
2017-09-18T05:40:17.938Z,2296
2017-09-18T05:41:18.594Z,2336
2017-09-18T05:42:19.257Z,2380
2017-09-18T05:43:20.200Z,2420
2017-09-18T05:44:20.856Z,2464
2017-09-18T05:45:21.513Z,2508
2017-09-18T05:46:22.169Z,2556
2017-09-18T05:47:22.828Z,2600
2017-09-18T05:48:23.735Z,2652
2017-09-18T05:49:24.389Z,2700
2017-09-18T05:50:25.046Z,2744
2017-09-18T05:51:25.701Z,2772
2017-09-18T05:52:26.359Z,2816
2017-09-18T05:53:27.266Z,2868
2017-09-18T05:54:27.922Z,2908
2017-09-18T05:55:28.577Z,2948
2017-09-18T05:56:29.233Z,2984
2017-09-18T05:57:29.897Z,3024
2017-09-18T05:58:30.844Z,3068
2017-09-18T05:59:31.503Z,3112
2017-09-18T06:00:32.155Z,3156
2017-09-18T06:01:32.814Z,3200
2017-09-18T06:02:33.468Z,3236
2017-09-18T06:03:34.376Z,3264
2017-09-18T06:04:35.070Z,3296
2017-09-18T06:05:35.726Z,3344
2017-09-18T06:06:36.384Z,3392
2017-09-18T06:07:37.042Z,3424
2017-09-18T06:08:37.998Z,3448
2017-09-18T06:09:38.653Z,3500
2017-09-18T06:10:39.309Z,3548
2017-09-18T06:11:39.969Z,3588
2017-09-18T06:12:40.621Z,3624
2017-09-18T06:13:41.561Z,3656
2017-09-18T06:14:42.218Z,3696
2017-09-18T06:15:42.884Z,3724
2017-09-18T06:16:43.531Z,3760
2017-09-18T06:17:44.187Z,3792
2017-09-18T06:18:45.143Z,3824
2017-09-18T06:19:45.800Z,3852
2017-09-18T06:20:46.458Z,3880
2017-09-18T06:21:47.112Z,3908
2017-09-18T06:22:47.770Z,3940
2017-09-18T06:23:48.726Z,3972
2017-09-18T06:24:49.383Z,4004
2017-09-18T06:25:50.038Z,4040
2017-09-18T06:26:50.693Z,4076
2017-09-18T06:27:51.351Z,4108
2017-09-18T06:28:52.307Z,4144
2017-09-18T06:29:52.962Z,4188
2017-09-18T06:30:53.618Z,4232
2017-09-18T06:31:54.273Z,4268
2017-09-18T06:32:54.948Z,4312
2017-09-18T06:33:55.854Z,4356
2017-09-18T06:34:56.512Z,4392
2017-09-18T06:35:57.169Z,4428
2017-09-18T06:36:57.824Z,4468
2017-09-18T06:37:58.480Z,4500
2017-09-18T06:38:59.436Z,4536
2017-09-18T06:40:00.094Z,4568
2017-09-18T06:41:00.751Z,4600
2017-09-18T06:42:01.409Z,4636
2017-09-18T06:43:02.064Z,4668
2017-09-18T06:44:03.021Z,4696
2017-09-18T06:45:03.678Z,4728
2017-09-18T06:46:04.336Z,4760
2017-09-18T06:47:04.992Z,4796
2017-09-18T06:48:05.647Z,4836
2017-09-18T06:49:06.554Z,4876
2017-09-18T06:50:07.212Z,4912
2017-09-18T06:51:07.868Z,4948
2017-09-18T06:52:08.521Z,4984
2017-09-18T06:53:09.177Z,5024
2017-09-18T06:54:10.082Z,5064
2017-09-18T06:55:10.737Z,5092
2017-09-18T06:56:11.393Z,5116
2017-09-18T06:57:12.050Z,5148
2017-09-18T06:58:12.715Z,5176
2017-09-18T06:59:13.620Z,5204
2017-09-18T07:00:14.277Z,5232
2017-09-18T07:01:14.935Z,5256
2017-09-18T07:02:15.592Z,5292
2017-09-18T07:03:16.250Z,5332
2017-09-18T07:04:17.210Z,5356
2017-09-18T07:05:17.868Z,5396
2017-09-18T07:06:18.539Z,5428
2017-09-18T07:07:19.183Z,5464
2017-09-18T07:08:19.841Z,5500
2017-09-18T07:09:20.785Z,5540
2017-09-18T07:10:21.444Z,5580
2017-09-18T07:11:22.102Z,5628
2017-09-18T07:12:22.761Z,5648
2017-09-18T07:13:23.426Z,5688
2017-09-18T07:14:24.335Z,5716
2017-09-18T07:15:24.995Z,5764
2017-09-18T07:16:25.654Z,5812
2017-09-18T07:17:26.310Z,5864
2017-09-18T07:18:26.975Z,5904
2017-09-18T07:19:27.880Z,5948
2017-09-18T07:20:28.539Z,5992
2017-09-18T07:21:29.199Z,6060
2017-09-18T07:22:29.857Z,6116
2017-09-18T07:23:30.517Z,6168
2017-09-18T07:24:31.475Z,6240
2017-09-18T07:25:32.135Z,6324
2017-09-18T07:26:32.795Z,6388
2017-09-18T07:27:33.489Z,6440
2017-09-18T07:28:34.147Z,6524
2017-09-18T07:29:35.143Z,6596
2017-09-18T07:30:35.806Z,6636
2017-09-18T07:31:36.465Z,6692
2017-09-18T07:32:37.125Z,6720
2017-09-18T07:33:37.784Z,6744
2017-09-18T07:34:38.746Z,6780
2017-09-18T07:35:39.402Z,6816
2017-09-18T07:36:40.062Z,6856
2017-09-18T07:37:40.721Z,6916
2017-09-18T07:38:41.387Z,6956
2017-09-18T07:39:42.343Z,6984
2017-09-18T07:40:43.001Z,7024
2017-09-18T07:41:43.661Z,7068
2017-09-18T07:42:44.320Z,7128
2017-09-18T07:43:44.980Z,7188
2017-09-18T07:44:45.889Z,7212
2017-09-18T07:45:46.585Z,7252
2017-09-18T07:46:47.247Z,7304
2017-09-18T07:47:47.916Z,7344
2017-09-18T07:48:48.564Z,7392
2017-09-18T07:49:49.523Z,7452
2017-09-18T07:50:50.184Z,7512
2017-09-18T07:51:50.844Z,7576
2017-09-18T07:52:51.504Z,7644
2017-09-18T07:53:52.165Z,7712
2017-09-18T07:54:53.127Z,7764
2017-09-18T07:55:53.790Z,7824
2017-09-18T07:56:54.447Z,7944
2017-09-18T07:57:55.108Z,8004
2017-09-18T07:58:55.770Z,8108
2017-09-18T07:59:56.679Z,8272
2017-09-18T08:00:57.342Z,8484
2017-09-18T08:01:58.006Z,8496
2017-09-18T08:02:58.662Z,8664
2017-09-18T08:03:59.331Z,8816
2017-09-18T08:05:00.294Z,8944
2017-09-18T08:06:00.956Z,9152
2017-09-18T08:07:01.617Z,9276
2017-09-18T08:08:02.279Z,9392
2017-09-18T08:09:02.938Z,9504
2017-09-18T08:10:03.848Z,9628
2017-09-18T08:11:04.508Z,9744
2017-09-18T08:12:05.171Z,9900
2017-09-18T08:13:05.833Z,10068
2017-09-18T08:14:06.496Z,10236
2017-09-18T08:15:07.410Z,10380
2017-09-18T08:16:08.070Z,10524
2017-09-18T08:17:08.733Z,10680
2017-09-18T08:18:09.395Z,10836
2017-09-18T08:19:10.060Z,11000
2017-09-18T08:20:10.982Z,11164
2017-09-18T08:21:11.645Z,11268
2017-09-18T08:22:12.307Z,11380
2017-09-18T08:23:12.969Z,11512
2017-09-18T08:24:13.633Z,11756
2017-09-18T08:25:14.596Z,12416
2017-09-18T08:26:15.258Z,12776
2017-09-18T08:27:15.923Z,13032
2017-09-18T08:28:16.588Z,13636
2017-09-18T08:29:17.251Z,14116
2017-09-18T08:30:18.164Z,13964
2017-09-18T08:31:18.829Z,14300
2017-09-18T08:32:19.494Z,14984
2017-09-18T08:33:20.157Z,15324
2017-09-18T08:34:20.822Z,16160
2017-09-18T08:35:21.788Z,31168
2017-09-18T08:36:22.454Z,62080
2017-09-18T08:37:23.118Z,77824
2017-09-18T08:38:23.784Z,78880
2017-09-18T08:39:24.452Z,75648
2017-09-18T08:40:25.368Z,70432
2017-09-18T08:41:26.032Z,72768
2017-09-18T08:42:26.697Z,74720
2017-09-18T08:43:27.397Z,69536
2017-09-18T08:44:28.061Z,67872
2017-09-18T08:45:28.975Z,62976
2017-09-18T08:46:29.641Z,56704
2017-09-18T08:47:30.303Z,66912
2017-09-18T08:48:30.970Z,73440
2017-09-18T08:49:31.636Z,73472
2017-09-18T08:50:32.550Z,72288
2017-09-18T08:51:33.215Z,69920
2017-09-18T08:52:33.881Z,66656
2017-09-18T08:53:34.545Z,62720
2017-09-18T08:54:35.213Z,59872
2017-09-18T08:55:36.132Z,58336
2017-09-18T08:56:36.796Z,59808
2017-09-18T08:57:37.461Z,61152
2017-09-18T08:58:38.127Z,58176
2017-09-18T08:59:38.795Z,56384
2017-09-18T09:00:39.712Z,56960
2017-09-18T09:01:40.379Z,62880
2017-09-18T09:02:41.047Z,60320
2017-09-18T09:03:41.713Z,53248
2017-09-18T09:04:42.379Z,48160
2017-09-18T09:05:43.345Z,49632
2017-09-18T09:06:44.013Z,53344
2017-09-18T09:07:44.680Z,54304
2017-09-18T09:08:45.347Z,58560
2017-09-18T09:09:46.016Z,58368
2017-09-18T09:10:46.933Z,18536
2017-09-18T09:11:47.599Z,54752
2017-09-18T09:12:48.301Z,59040
2017-09-18T09:13:48.968Z,61664
2017-09-18T09:14:49.635Z,37440
2017-09-18T09:15:50.552Z,63680
2017-09-18T09:16:51.221Z,17188
2017-09-18T09:17:51.890Z,16468
2017-09-18T09:18:52.555Z,18688
2017-09-18T09:19:53.223Z,93440
2017-09-18T09:20:54.143Z,80928
2017-09-18T09:21:54.809Z,88544
2017-09-18T09:22:55.475Z,86432
2017-09-18T09:23:56.146Z,88672
2017-09-18T09:24:56.853Z,86944
2017-09-18T09:25:57.765Z,86240
2017-09-18T09:26:58.432Z,91296
2017-09-18T09:27:59.103Z,18080
2017-09-18T09:28:59.769Z,15348
2017-09-18T09:30:00.440Z,18688
2017-09-18T09:31:01.356Z,77536
2017-09-18T09:32:02.027Z,30272
2017-09-18T09:33:02.697Z,87328
2017-09-18T09:34:03.366Z,104416
2017-09-18T09:35:04.036Z,109024
2017-09-18T09:36:05.005Z,115712
2017-09-18T09:37:05.674Z,122528
2017-09-18T09:38:06.343Z,124928
2017-09-18T09:39:07.010Z,29792
2017-09-18T09:40:07.679Z,26208
2017-09-18T09:41:08.647Z,20736
2017-09-18T09:42:09.317Z,17664
2017-09-18T09:43:09.986Z,14704
2017-09-18T09:44:10.655Z,13360
2017-09-18T09:45:11.322Z,12760
2017-09-18T09:46:12.239Z,13080
2017-09-18T09:47:12.910Z,14064
2017-09-18T09:48:13.575Z,15304
2017-09-18T09:49:14.243Z,16364
2017-09-18T09:50:15.010Z,18688
2017-09-18T09:51:15.921Z,46208
2017-09-18T09:52:16.593Z,97856
2017-09-18T09:53:17.252Z,24384
2017-09-18T09:54:17.920Z,18496
2017-09-18T09:55:18.596Z,15788
2017-09-18T09:56:19.513Z,14560
2017-09-18T09:57:20.179Z,13548
2017-09-18T09:58:20.845Z,11372
2017-09-18T09:59:21.511Z,9308
2017-09-18T10:00:22.176Z,7640
2017-09-18T10:01:23.091Z,6488
2017-09-18T10:02:23.755Z,5748
2017-09-18T10:03:24.419Z,5208
2017-09-18T10:04:25.083Z,4852
2017-09-18T10:05:25.745Z,4724
2017-09-18T10:06:26.659Z,4948
2017-09-18T10:07:27.321Z,5228
2017-09-18T10:08:27.985Z,5388
2017-09-18T10:09:28.651Z,5676
2017-09-18T10:10:29.349Z,6064
2017-09-18T10:11:30.313Z,6132
2017-09-18T10:12:30.975Z,6456
2017-09-18T10:13:31.639Z,6812
2017-09-18T10:14:32.304Z,7412
2017-09-18T10:15:33.001Z,8244
2017-09-18T10:16:33.965Z,9076
2017-09-18T10:17:34.638Z,10168
2017-09-18T10:18:35.302Z,11012
2017-09-18T10:19:35.970Z,12004
2017-09-18T10:20:36.628Z,14040
2017-09-18T10:21:37.545Z,118176
2017-09-18T10:22:38.210Z,118144
2017-09-18T10:23:38.875Z,121120
2017-09-18T10:24:39.546Z,120864
2017-09-18T10:25:40.212Z,121472
2017-09-18T10:26:41.133Z,120288
2017-09-18T10:27:41.835Z,121728
2017-09-18T10:28:42.509Z,123616
2017-09-18T10:29:43.176Z,123360
2017-09-18T10:30:43.844Z,52352
2017-09-18T10:31:44.763Z,73216
2017-09-18T10:32:45.430Z,29440
2017-09-18T10:33:46.097Z,21088
2017-09-18T10:34:46.766Z,17920
2017-09-18T10:35:47.434Z,14652
2017-09-18T10:36:48.353Z,11656
2017-09-18T10:37:49.021Z,9724
2017-09-18T10:38:49.687Z,8988
2017-09-18T10:39:50.352Z,8348
2017-09-18T10:40:51.021Z,8092
2017-09-18T10:41:51.987Z,8256
2017-09-18T10:42:52.652Z,8980
2017-09-18T10:43:53.320Z,10036
2017-09-18T10:44:53.987Z,11348
2017-09-18T10:45:54.658Z,12892
2017-09-18T10:46:55.568Z,14784
2017-09-18T10:47:56.235Z,16452
2017-09-18T10:48:56.901Z,18176
2017-09-18T10:49:57.574Z,19872
2017-09-18T10:50:58.233Z,22752
2017-09-18T10:51:59.200Z,27296
2017-09-18T10:52:59.898Z,41664
2017-09-18T10:54:00.567Z,134496
2017-09-18T10:55:01.241Z,131744
2017-09-18T10:56:01.938Z,19168
2017-09-18T10:57:02.855Z,16472
2017-09-18T10:58:03.520Z,14732
2017-09-18T10:59:04.186Z,11960
2017-09-18T11:00:04.854Z,10588
2017-09-18T11:01:05.519Z,9844
2017-09-18T11:02:06.436Z,9700
2017-09-18T11:03:07.103Z,10344
2017-09-18T11:04:07.768Z,10668
2017-09-18T11:05:08.432Z,11324
2017-09-18T11:06:09.098Z,12556
2017-09-18T11:07:10.064Z,13676
2017-09-18T11:08:10.775Z,15128
2017-09-18T11:09:11.438Z,17336
2017-09-18T11:10:12.105Z,21472
2017-09-18T11:11:12.773Z,33248
2017-09-18T11:12:13.691Z,147104
2017-09-18T11:13:14.361Z,147776
2017-09-18T11:14:15.027Z,146144
2017-09-18T11:15:15.694Z,150816
2017-09-18T11:16:16.362Z,54784
2017-09-18T11:17:17.277Z,31552
2017-09-18T11:18:17.994Z,26464
2017-09-18T11:19:18.662Z,27232
2017-09-18T11:20:19.331Z,25952
2017-09-18T11:21:19.999Z,26592
2017-09-18T11:22:20.965Z,24064
2017-09-18T11:23:21.637Z,39424
2017-09-18T11:24:22.334Z,68704
2017-09-18T11:25:23.001Z,43936
2017-09-18T11:26:23.672Z,147232
2017-09-18T11:27:24.591Z,146528
2017-09-18T11:28:25.260Z,147072
2017-09-18T11:29:25.935Z,146848
2017-09-18T11:30:26.599Z,143520
2017-09-18T11:31:27.272Z,145024
2017-09-18T11:32:28.190Z,142976
2017-09-18T11:33:28.859Z,142176
2017-09-18T11:34:29.529Z,143168
2017-09-18T11:35:30.222Z,145984
2017-09-18T11:36:30.893Z,146528
2017-09-18T11:37:31.815Z,146240
2017-09-18T11:38:32.487Z,143936
2017-09-18T11:39:33.195Z,145952
2017-09-18T11:40:33.862Z,25216
2017-09-18T11:41:34.535Z,22048
2017-09-18T11:42:35.536Z,21952
2017-09-18T11:43:36.205Z,21376
2017-09-18T11:44:36.874Z,20992
2017-09-18T11:45:37.545Z,28864
2017-09-18T11:46:38.217Z,112320
2017-09-18T11:47:39.138Z,150336
2017-09-18T11:48:39.808Z,148064
2017-09-18T11:49:40.479Z,146976
2017-09-18T11:50:41.149Z,141440
2017-09-18T11:51:41.817Z,16116
2017-09-18T11:52:42.735Z,16564
2017-09-18T11:53:43.407Z,18496
2017-09-18T11:54:44.075Z,141024
2017-09-18T11:55:44.744Z,133792
2017-09-18T11:56:45.414Z,128640
2017-09-18T11:57:46.338Z,127648
2017-09-18T11:58:47.006Z,123136
2017-09-18T11:59:47.676Z,121216
2017-09-18T12:00:48.347Z,126176
2017-09-18T12:01:49.020Z,128928
2017-09-18T12:02:49.944Z,128448
2017-09-18T12:03:50.612Z,24032
2017-09-18T12:04:51.280Z,24096
2017-09-18T12:05:51.948Z,33120
2017-09-18T12:06:52.619Z,80128
2017-09-18T12:07:53.540Z,124576
2017-09-18T12:08:54.213Z,137056
2017-09-18T12:09:54.884Z,101952
2017-09-18T12:10:55.556Z,81632
2017-09-18T12:11:56.225Z,72256
2017-09-18T12:12:57.143Z,62304
2017-09-18T12:13:57.812Z,94368
2017-09-18T12:14:58.483Z,119072
2017-09-18T12:15:59.150Z,25344
2017-09-18T12:16:59.822Z,116256
2017-09-18T12:18:00.794Z,19552
2017-09-18T12:19:01.464Z,17632
2017-09-18T12:20:02.132Z,17664
2017-09-18T12:21:02.800Z,18880
2017-09-18T12:22:03.467Z,22368
2017-09-18T12:23:04.386Z,25120
2017-09-18T12:24:05.056Z,52480
2017-09-18T12:25:05.728Z,65088
2017-09-18T12:26:06.400Z,125984
2017-09-18T12:27:07.071Z,133728
2017-09-18T12:28:07.994Z,120000
2017-09-18T12:29:08.662Z,24896
2017-09-18T12:30:09.329Z,21920
2017-09-18T12:31:09.997Z,19840
2017-09-18T12:32:10.667Z,18944
2017-09-18T12:33:11.633Z,24128
2017-09-18T12:34:12.303Z,26400
2017-09-18T12:35:12.972Z,18912
2017-09-18T12:36:13.642Z,20224
2017-09-18T12:37:14.309Z,23232
2017-09-18T12:38:15.225Z,61856
2017-09-18T12:39:15.893Z,66176
2017-09-18T12:40:16.562Z,49824
2017-09-18T12:41:17.231Z,120640
2017-09-18T12:42:17.904Z,119840
2017-09-18T12:43:18.874Z,119808
2017-09-18T12:44:19.543Z,87872
2017-09-18T12:45:20.212Z,113632
2017-09-18T12:46:20.881Z,100512
2017-09-18T12:47:21.551Z,19392
2017-09-18T12:48:22.469Z,17136
2017-09-18T12:49:23.138Z,18336
2017-09-18T12:50:23.805Z,18208
2017-09-18T12:51:24.474Z,23648
2017-09-18T12:52:25.143Z,116096
2017-09-18T12:53:26.062Z,31936
2017-09-18T12:54:26.731Z,114752
2017-09-18T12:55:27.401Z,116800
2017-09-18T12:56:28.069Z,117344
2017-09-18T12:57:28.740Z,115520
2017-09-18T12:58:29.662Z,113344
2017-09-18T12:59:30.332Z,111040
2017-09-18T13:00:31.001Z,109728
2017-09-18T13:01:31.674Z,112448
2017-09-18T13:02:32.376Z,108352
2017-09-18T13:03:33.296Z,106336
2017-09-18T13:04:33.969Z,107744
2017-09-18T13:05:34.642Z,111136
2017-09-18T13:06:35.311Z,115328
2017-09-18T13:07:35.989Z,112320
2017-09-18T13:08:36.912Z,111232
2017-09-18T13:09:37.582Z,112448
2017-09-18T13:10:38.253Z,113856
2017-09-18T13:11:38.923Z,104864
2017-09-18T13:12:39.603Z,102752
2017-09-18T13:13:40.521Z,100768
2017-09-18T13:14:41.191Z,103520
2017-09-18T13:15:41.862Z,66272
2017-09-18T13:16:42.531Z,101856
2017-09-18T13:17:43.203Z,106784
2017-09-18T13:18:44.175Z,108032
2017-09-18T13:19:44.848Z,104000
2017-09-18T13:20:45.519Z,102592
2017-09-18T13:21:46.189Z,101568
2017-09-18T13:22:46.860Z,106752
2017-09-18T13:23:47.831Z,109024
2017-09-18T13:24:48.502Z,109056
2017-09-18T13:25:49.179Z,105248
2017-09-18T13:26:49.853Z,104672
2017-09-18T13:27:50.516Z,17512
2017-09-18T13:28:51.437Z,91552
2017-09-18T13:29:52.111Z,104192
2017-09-18T13:30:52.780Z,61536
2017-09-18T13:31:53.448Z,73536
2017-09-18T13:32:54.124Z,43904
2017-09-18T13:33:55.072Z,63808
2017-09-18T13:34:55.742Z,68832
2017-09-18T13:35:56.410Z,49088
2017-09-18T13:36:57.078Z,47680
2017-09-18T13:37:57.746Z,53120
2017-09-18T13:38:58.715Z,49504
2017-09-18T13:39:59.385Z,43424
2017-09-18T13:41:00.053Z,38240
2017-09-18T13:42:00.722Z,56512
2017-09-18T13:43:01.392Z,55968
2017-09-18T13:44:02.310Z,14996